createdAt,value
2023-04-09T00:01:48.419Z,7.70
2023-04-09T00:03:50.336Z,7.80
2023-04-09T00:05:52.437Z,7.80
2023-04-09T00:07:54.094Z,7.70
2023-04-09T00:09:56.448Z,7.70
2023-04-09T00:11:58.252Z,7.60
2023-04-09T00:14:00.174Z,7.60
2023-04-09T00:16:02.102Z,7.60
2023-04-09T00:18:03.797Z,7.60
2023-04-09T00:20:05.986Z,7.70
2023-04-09T00:22:07.653Z,7.70
2023-04-09T00:24:09.299Z,7.70
2023-04-09T00:26:10.984Z,7.60
2023-04-09T00:28:12.605Z,7.60
2023-04-09T00:30:14.244Z,7.60
2023-04-09T00:32:15.834Z,7.70
2023-04-09T00:34:17.441Z,7.70
2023-04-09T00:36:19.048Z,7.70
2023-04-09T00:38:20.973Z,7.70
2023-04-09T00:40:22.713Z,7.70
2023-04-09T00:42:24.332Z,7.70
2023-04-09T00:44:26.163Z,7.70
2023-04-09T00:46:27.810Z,7.60
2023-04-09T00:48:29.490Z,7.60
2023-04-09T00:50:31.131Z,7.70
2023-04-09T00:52:33.024Z,7.60
2023-04-09T00:54:34.733Z,7.60
2023-04-09T00:56:36.906Z,7.70
2023-04-09T00:58:40.208Z,7.70
2023-04-09T01:00:41.875Z,7.70
2023-04-09T01:02:43.855Z,7.60
2023-04-09T01:04:45.634Z,7.70
2023-04-09T01:06:55.682Z,7.70
2023-04-09T01:09:02.883Z,7.70
2023-04-09T01:11:16.185Z,7.60
2023-04-09T01:13:28.489Z,7.50
2023-04-09T01:15:33.716Z,7.50
2023-04-09T01:17:44.186Z,7.50
2023-04-09T01:19:54.640Z,7.50
2023-04-09T01:21:56.394Z,7.50
2023-04-09T01:24:02.677Z,7.50
2023-04-09T01:26:22.965Z,7.60
2023-04-09T01:28:31.727Z,7.50
2023-04-09T01:30:33.542Z,7.60
2023-04-09T01:32:37.151Z,7.50
2023-04-09T01:34:39.535Z,7.50
2023-04-09T01:36:41.926Z,7.40
2023-04-09T01:38:44.869Z,7.40
2023-04-09T01:40:46.778Z,7.40
2023-04-09T01:42:49.475Z,7.40
2023-04-09T01:44:51.965Z,7.40
2023-04-09T01:46:54.436Z,7.40
2023-04-09T01:48:56.908Z,7.40
2023-04-09T01:50:59.129Z,7.40
2023-04-09T01:53:01.580Z,7.40
2023-04-09T01:55:03.342Z,7.40
2023-04-09T01:57:04.933Z,7.40
2023-04-09T01:59:06.549Z,7.40
2023-04-09T02:01:12.052Z,7.40
2023-04-09T02:03:16.533Z,7.30
2023-04-09T02:05:19.001Z,7.40
2023-04-09T02:07:20.607Z,7.40
2023-04-09T02:09:24.272Z,7.50
2023-04-09T02:11:26.887Z,7.50
2023-04-09T02:13:29.636Z,7.50
2023-04-09T02:15:31.717Z,7.50
2023-04-09T02:17:33.648Z,7.40
2023-04-09T02:19:39.032Z,7.40
2023-04-09T02:21:40.683Z,7.40
2023-04-09T02:23:42.344Z,7.40
2023-04-09T02:25:44.212Z,7.30
2023-04-09T02:27:45.824Z,7.30
2023-04-09T02:29:47.439Z,7.30
2023-04-09T02:31:50.073Z,7.30
2023-04-09T02:33:51.713Z,7.40
2023-04-09T02:35:53.372Z,7.40
2023-04-09T02:37:55.690Z,7.40
2023-04-09T02:39:57.356Z,7.40
2023-04-09T02:41:59.052Z,7.40
2023-04-09T02:44:00.610Z,7.40
2023-04-09T02:46:02.364Z,7.30
2023-04-09T02:48:04.320Z,7.30
2023-04-09T02:50:06.245Z,7.30
2023-04-09T02:52:09.677Z,7.30
2023-04-09T02:54:11.331Z,7.20
2023-04-09T02:56:12.966Z,7.20
2023-04-09T02:58:14.565Z,7.20
2023-04-09T03:00:16.353Z,7.10
2023-04-09T03:02:18.168Z,7.10
2023-04-09T03:04:19.924Z,7.10
2023-04-09T03:06:21.585Z,7.10
2023-04-09T03:08:23.209Z,7.10
2023-04-09T03:10:24.906Z,7.10
2023-04-09T03:12:26.569Z,7.10
2023-04-09T03:14:28.405Z,7.20
2023-04-09T03:16:30.028Z,7.10
2023-04-09T03:18:31.731Z,7.10
2023-04-09T03:20:33.422Z,7.10
2023-04-09T03:22:38.468Z,7.10
2023-04-09T03:24:40.234Z,7.10
2023-04-09T03:26:41.832Z,7.10
2023-04-09T03:28:43.416Z,7.10
2023-04-09T03:30:45.017Z,7.20
2023-04-09T03:32:46.659Z,7.30
2023-04-09T03:34:48.325Z,7.20
2023-04-09T03:36:50.034Z,7.20
2023-04-09T03:38:52.029Z,7.10
2023-04-09T03:40:53.745Z,7.10
2023-04-09T03:42:55.520Z,7.10
2023-04-09T03:44:57.138Z,7.10
2023-04-09T03:46:58.800Z,7.10
2023-04-09T03:49:00.636Z,7.20
2023-04-09T03:51:02.244Z,7.20
2023-04-09T03:53:03.892Z,7.10
2023-04-09T03:55:05.961Z,7.10
2023-04-09T03:57:07.556Z,7.10
2023-04-09T03:59:09.166Z,7.10
2023-04-09T04:01:10.927Z,7.10
2023-04-09T04:03:14.739Z,7.10
2023-04-09T04:05:16.707Z,7.10
2023-04-09T04:07:18.327Z,7.00
2023-04-09T04:09:19.947Z,7.00
2023-04-09T04:11:21.562Z,7.00
2023-04-09T04:13:23.264Z,7.00
2023-04-09T04:15:24.915Z,7.00
2023-04-09T04:17:26.551Z,7.00
2023-04-09T04:19:28.239Z,6.90
2023-04-09T04:21:29.835Z,6.80
2023-04-09T04:23:31.410Z,6.80
2023-04-09T04:25:33.012Z,6.70
2023-04-09T04:27:34.610Z,6.70
2023-04-09T04:29:37.532Z,6.70
2023-04-09T04:31:39.203Z,6.70
2023-04-09T04:33:41.446Z,6.80
2023-04-09T04:35:43.157Z,6.90
2023-04-09T04:37:44.763Z,6.80
2023-04-09T04:39:46.391Z,6.70
2023-04-09T04:41:48.036Z,6.70
2023-04-09T04:43:49.689Z,6.70
2023-04-09T04:45:53.543Z,6.70
2023-04-09T04:47:55.532Z,6.70
2023-04-09T04:49:57.221Z,6.80
2023-04-09T04:51:58.936Z,6.80
2023-04-09T04:54:00.579Z,6.80
2023-04-09T04:56:02.129Z,6.80
2023-04-09T04:58:03.755Z,6.80
2023-04-09T05:00:05.586Z,6.80
2023-04-09T05:02:07.584Z,6.80
2023-04-09T05:04:09.226Z,6.80
2023-04-09T05:06:10.827Z,6.70
2023-04-09T05:08:12.481Z,6.70
2023-04-09T05:10:14.101Z,6.70
2023-04-09T05:12:17.877Z,6.80
2023-04-09T05:14:21.407Z,6.90
2023-04-09T05:16:23.112Z,7.00
2023-04-09T05:18:24.731Z,6.90
2023-04-09T05:20:27.478Z,7.00
2023-04-09T05:22:29.100Z,7.00
2023-04-09T05:24:30.680Z,7.10
2023-04-09T05:26:32.292Z,7.10
2023-04-09T05:28:33.972Z,7.20
2023-04-09T05:30:35.668Z,7.20
2023-04-09T05:32:37.389Z,7.20
2023-04-09T05:34:39.024Z,7.20
2023-04-09T05:36:41.154Z,7.30
2023-04-09T05:38:43.221Z,7.30
2023-04-09T05:40:45.770Z,7.40
2023-04-09T05:42:47.460Z,7.50
2023-04-09T05:44:49.127Z,7.50
2023-04-09T05:46:50.824Z,7.60
2023-04-09T05:48:52.636Z,7.60
2023-04-09T05:50:55.727Z,7.60
2023-04-09T05:52:57.643Z,7.60
2023-04-09T05:54:59.282Z,7.60
2023-04-09T05:57:01.114Z,7.50
2023-04-09T05:59:02.745Z,7.50
2023-04-09T06:01:04.360Z,7.50
2023-04-09T06:03:06.019Z,7.50
2023-04-09T06:05:08.188Z,7.30
2023-04-09T06:07:09.802Z,7.30
2023-04-09T06:09:11.412Z,7.20
2023-04-09T06:11:13.096Z,7.20
2023-04-09T06:13:14.868Z,7.30
2023-04-09T06:15:16.709Z,7.30
2023-04-09T06:17:18.293Z,7.30
2023-04-09T06:19:19.962Z,7.30
2023-04-09T06:21:21.610Z,7.30
2023-04-09T06:23:23.187Z,7.30
2023-04-09T06:25:24.893Z,7.30
2023-04-09T06:27:27.078Z,7.30
2023-04-09T06:29:29.470Z,7.40
2023-04-09T06:31:31.162Z,7.40
2023-04-09T06:33:32.792Z,7.50
2023-04-09T06:35:34.480Z,7.70
2023-04-09T06:37:36.225Z,7.70
2023-04-09T06:39:40.403Z,7.80
2023-04-09T06:41:44.123Z,7.80
2023-04-09T06:43:45.926Z,7.80
2023-04-09T06:45:47.576Z,7.90
2023-04-09T06:47:49.341Z,7.90
2023-04-09T06:49:51.231Z,7.90
2023-04-09T06:51:56.097Z,8.00
2023-04-09T06:53:57.717Z,8.00
2023-04-09T06:55:59.312Z,8.00
2023-04-09T06:58:02.612Z,8.10
2023-04-09T07:00:04.548Z,8.10
2023-04-09T07:02:06.809Z,8.10
2023-04-09T07:04:08.603Z,8.20
2023-04-09T07:06:10.228Z,8.20
2023-04-09T07:08:12.492Z,8.30
2023-04-09T07:10:14.135Z,8.30
2023-04-09T07:12:32.114Z,8.30
2023-04-09T07:14:36.901Z,8.40
2023-04-09T07:16:38.569Z,8.30
2023-04-09T07:18:40.278Z,8.40
2023-04-09T07:20:41.908Z,8.50
2023-04-09T07:22:43.578Z,8.50
2023-04-09T07:24:45.451Z,8.50
2023-04-09T07:26:47.038Z,8.60
2023-04-09T07:28:48.672Z,8.70
2023-04-09T07:30:50.524Z,8.70
2023-04-09T07:32:52.144Z,8.70
2023-04-09T07:34:54.430Z,8.80
2023-04-09T07:36:56.117Z,8.80
2023-04-09T07:38:57.732Z,8.90
2023-04-09T07:40:59.437Z,9.00
2023-04-09T07:43:01.004Z,9.10
2023-04-09T07:45:03.472Z,9.20
2023-04-09T07:47:06.996Z,9.20
2023-04-09T07:49:08.646Z,9.20
2023-04-09T07:51:11.349Z,9.20
2023-04-09T07:53:13.036Z,9.10
2023-04-09T07:55:16.244Z,9.10
2023-04-09T07:57:18.485Z,9.30
2023-04-09T07:59:20.108Z,9.30
2023-04-09T08:01:24.658Z,9.30
2023-04-09T08:03:26.468Z,9.30
2023-04-09T08:05:28.915Z,9.40
2023-04-09T08:07:30.648Z,9.30
2023-04-09T08:09:32.428Z,9.30
2023-04-09T08:11:34.164Z,9.40
2023-04-09T08:13:35.784Z,9.40
2023-04-09T08:15:37.872Z,9.50
2023-04-09T08:17:39.555Z,9.50
2023-04-09T08:19:42.091Z,9.60
2023-04-09T08:21:44.300Z,9.70
2023-04-09T08:23:46.028Z,9.80
2023-04-09T08:25:47.659Z,9.80
2023-04-09T08:27:49.329Z,9.70
2023-04-09T08:29:51.067Z,9.80
2023-04-09T08:31:52.820Z,9.80
2023-04-09T08:33:54.496Z,9.90
2023-04-09T08:35:56.349Z,10.00
2023-04-09T08:37:59.054Z,9.90
2023-04-09T08:40:00.656Z,10.00
2023-04-09T08:42:02.604Z,10.00
2023-04-09T08:44:04.373Z,9.90
2023-04-09T08:46:06.035Z,9.90
2023-04-09T08:48:09.437Z,10.00
2023-04-09T08:50:11.240Z,10.10
2023-04-09T08:52:12.897Z,10.10
2023-04-09T08:54:15.829Z,10.20
2023-04-09T08:56:17.462Z,10.30
2023-04-09T08:58:19.126Z,10.20
2023-04-09T09:00:20.987Z,10.10
2023-04-09T09:02:24.200Z,10.20
2023-04-09T09:04:26.229Z,10.40
2023-04-09T09:06:29.986Z,10.50
2023-04-09T09:08:31.668Z,10.60
2023-04-09T09:10:40.733Z,10.50
2023-04-09T09:12:43.014Z,10.40
2023-04-09T09:14:44.683Z,10.40
2023-04-09T09:16:55.447Z,10.50
2023-04-09T09:18:57.503Z,10.60
2023-04-09T09:21:15.729Z,10.70
2023-04-09T09:23:34.153Z,10.70
2023-04-09T09:25:39.080Z,10.90
2023-04-09T09:27:41.014Z,11.00
2023-04-09T09:29:44.850Z,11.20
2023-04-09T09:31:49.046Z,11.40
2023-04-09T09:33:51.142Z,11.50
2023-04-09T09:35:54.302Z,11.40
2023-04-09T09:38:05.295Z,11.20
2023-04-09T09:40:07.822Z,11.20
2023-04-09T09:42:09.539Z,11.60
2023-04-09T09:44:12.223Z,11.50
2023-04-09T09:46:14.826Z,11.60
2023-04-09T09:48:16.523Z,11.60
2023-04-09T09:50:18.444Z,11.70
2023-04-09T09:52:26.944Z,12.00
2023-04-09T09:54:31.361Z,12.20
2023-04-09T09:56:37.723Z,12.20
2023-04-09T09:58:45.256Z,12.10
2023-04-09T10:00:48.379Z,12.10
2023-04-09T10:02:56.636Z,12.40
2023-04-09T10:05:00.712Z,12.30
2023-04-09T10:07:03.928Z,12.40
2023-04-09T10:09:06.745Z,12.70
2023-04-09T10:11:08.869Z,12.90
2023-04-09T10:13:29.574Z,13.10
2023-04-09T10:15:31.759Z,13.30
2023-04-09T10:17:33.369Z,13.40
2023-04-09T10:19:38.179Z,13.50
2023-04-09T10:21:45.670Z,13.60
2023-04-09T10:23:49.412Z,13.60
2023-04-09T10:25:51.435Z,13.40
2023-04-09T10:28:00.051Z,13.40
2023-04-09T10:30:01.899Z,13.70
2023-04-09T10:32:07.071Z,13.60
2023-04-09T10:34:10.841Z,13.20
2023-04-09T10:36:13.193Z,13.20
2023-04-09T10:38:15.278Z,13.50
2023-04-09T10:40:21.693Z,13.60
2023-04-09T10:42:27.074Z,13.40
2023-04-09T10:44:31.318Z,13.70
2023-04-09T10:46:36.882Z,14.30
2023-04-09T10:48:38.612Z,14.30
2023-04-09T10:50:42.726Z,14.20
2023-04-09T10:52:44.719Z,14.50
2023-04-09T10:54:47.049Z,14.00
2023-04-09T10:57:07.426Z,13.80
2023-04-09T10:59:09.270Z,14.20
2023-04-09T11:01:10.898Z,14.70
2023-04-09T11:03:21.898Z,14.30
2023-04-09T11:05:32.817Z,15.10
2023-04-09T11:07:36.899Z,15.00
2023-04-09T11:09:38.536Z,16.70
2023-04-09T11:11:40.680Z,16.50
2023-04-09T11:13:43.123Z,15.70
2023-04-09T11:15:45.879Z,14.80
2023-04-09T11:17:48.237Z,14.40
2023-04-09T11:19:49.928Z,15.70
2023-04-09T11:21:51.552Z,17.60
2023-04-09T11:23:53.311Z,18.60
2023-04-09T11:25:56.068Z,18.80
2023-04-09T11:27:57.929Z,16.90
2023-04-09T11:29:59.520Z,17.10
2023-04-09T11:32:01.314Z,17.80
2023-04-09T11:34:03.250Z,18.70
2023-04-09T11:36:06.401Z,20.30
2023-04-09T11:38:08.794Z,20.60
2023-04-09T11:40:23.579Z,20.20
2023-04-09T11:42:28.213Z,20.60
2023-04-09T11:44:31.213Z,21.10
2023-04-09T11:46:33.388Z,21.60
2023-04-09T11:48:35.715Z,22.30
2023-04-09T11:50:37.722Z,21.30
2023-04-09T11:52:40.228Z,21.00
2023-04-09T11:54:41.988Z,21.30
2023-04-09T11:56:43.636Z,22.20
2023-04-09T11:58:47.332Z,22.40
2023-04-09T12:00:49.086Z,22.50
2023-04-09T12:02:59.282Z,22.40
2023-04-09T12:05:03.929Z,22.30
2023-04-09T12:07:08.590Z,22.00
2023-04-09T12:09:13.594Z,21.70
2023-04-09T12:11:16.041Z,22.00
2023-04-09T12:13:17.700Z,19.10
2023-04-09T12:15:22.301Z,18.30
2023-04-09T12:17:24.256Z,19.90
2023-04-09T12:19:26.272Z,22.20
2023-04-09T12:21:44.979Z,21.80
2023-04-09T12:23:46.568Z,23.10
2023-04-09T12:25:48.320Z,22.30
2023-04-09T12:27:50.285Z,22.70
2023-04-09T12:29:51.871Z,23.10
2023-04-09T12:31:54.028Z,24.00
2023-04-09T12:33:56.199Z,25.20
2023-04-09T12:35:58.470Z,23.70
2023-04-09T12:38:00.678Z,22.60
2023-04-09T12:40:02.328Z,23.30
2023-04-09T12:42:04.198Z,24.70
2023-04-09T12:44:07.530Z,23.50
2023-04-09T12:46:09.451Z,23.10
2023-04-09T12:48:11.757Z,23.30
2023-04-09T12:50:15.072Z,23.80
2023-04-09T12:52:18.513Z,24.00
2023-04-09T12:54:20.456Z,24.50
2023-04-09T12:56:22.018Z,25.00
2023-04-09T12:58:24.421Z,24.90
2023-04-09T13:00:31.053Z,25.40
2023-04-09T13:02:33.322Z,25.60
2023-04-09T13:04:38.181Z,25.40
2023-04-09T13:06:39.891Z,25.20
2023-04-09T13:08:41.566Z,24.90
2023-04-09T13:10:43.827Z,25.90
2023-04-09T13:12:45.556Z,26.10
2023-04-09T13:14:48.293Z,26.20
2023-04-09T13:16:50.184Z,25.60
2023-04-09T13:18:52.595Z,25.50
2023-04-09T13:20:54.438Z,25.90
2023-04-09T13:22:56.240Z,24.90
2023-04-09T13:24:57.860Z,25.50
2023-04-09T13:26:59.426Z,26.70
2023-04-09T13:29:01.851Z,26.90
2023-04-09T13:31:05.824Z,26.70
2023-04-09T13:33:07.583Z,25.70
2023-04-09T13:35:10.235Z,25.70
2023-04-09T13:37:11.857Z,26.10
2023-04-09T13:39:13.438Z,26.50
2023-04-09T13:41:15.499Z,27.20
2023-04-09T13:43:17.184Z,26.40
2023-04-09T13:45:20.625Z,26.60
2023-04-09T13:47:23.926Z,26.70
2023-04-09T13:49:27.447Z,25.90
2023-04-09T13:51:30.016Z,26.60
2023-04-09T13:53:31.823Z,26.80
2023-04-09T13:55:33.476Z,25.80
2023-04-09T13:57:35.228Z,26.00
2023-04-09T13:59:38.067Z,24.60
2023-04-09T14:01:39.947Z,23.30
2023-04-09T14:03:43.168Z,22.00
2023-04-09T14:05:44.952Z,22.60
2023-04-09T14:07:46.588Z,25.20
2023-04-09T14:09:48.373Z,24.50
2023-04-09T14:11:50.904Z,22.70
2023-04-09T14:13:52.965Z,22.10
2023-04-09T14:15:54.962Z,22.60
2023-04-09T14:17:56.820Z,22.90
2023-04-09T14:19:59.081Z,22.70
2023-04-09T14:22:00.777Z,21.30
2023-04-09T14:24:02.420Z,20.00
2023-04-09T14:26:05.354Z,19.80
2023-04-09T14:28:07.070Z,20.60
2023-04-09T14:30:12.508Z,22.60
2023-04-09T14:32:14.194Z,23.30
2023-04-09T14:34:15.850Z,23.60
2023-04-09T14:36:17.659Z,22.70
2023-04-09T14:38:19.293Z,22.60
2023-04-09T14:40:21.023Z,22.70
2023-04-09T14:42:22.778Z,21.60
2023-04-09T14:44:27.168Z,22.10
2023-04-09T14:46:28.790Z,22.30
2023-04-09T14:48:30.421Z,23.00
2023-04-09T14:50:33.867Z,24.40
2023-04-09T14:52:35.931Z,24.80
2023-04-09T14:54:37.819Z,26.20
2023-04-09T14:56:39.515Z,25.90
2023-04-09T14:58:41.184Z,26.80
2023-04-09T15:00:44.885Z,26.40
2023-04-09T15:02:47.793Z,26.20
2023-04-09T15:04:50.063Z,26.50
2023-04-09T15:06:52.078Z,27.30
2023-04-09T15:08:54.084Z,26.90
2023-04-09T15:10:56.136Z,27.60
2023-04-09T15:12:57.734Z,27.50
2023-04-09T15:14:59.511Z,25.00
2023-04-09T15:17:01.145Z,23.60
2023-04-09T15:19:03.266Z,21.50
2023-04-09T15:21:05.465Z,20.10
2023-04-09T15:23:07.166Z,19.30
2023-04-09T15:25:08.934Z,20.30
2023-04-09T15:27:10.579Z,23.50
2023-04-09T15:29:12.197Z,25.60
2023-04-09T15:31:13.901Z,27.20
2023-04-09T15:33:15.578Z,26.80
2023-04-09T15:35:23.946Z,26.80
2023-04-09T15:37:25.805Z,26.90
2023-04-09T15:39:28.471Z,26.20
2023-04-09T15:41:32.275Z,26.70
2023-04-09T15:43:34.031Z,27.50
2023-04-09T15:45:35.758Z,26.80
2023-04-09T15:47:37.374Z,26.60
2023-04-09T15:49:39.106Z,24.20
2023-04-09T15:51:40.728Z,24.00
2023-04-09T15:53:42.474Z,23.10
2023-04-09T15:55:44.122Z,22.10
2023-04-09T15:57:47.026Z,22.90
2023-04-09T15:59:48.922Z,24.80
2023-04-09T16:01:50.634Z,25.80
2023-04-09T16:03:52.689Z,23.60
2023-04-09T16:05:54.356Z,21.70
2023-04-09T16:07:57.652Z,23.40
2023-04-09T16:10:01.997Z,24.90
2023-04-09T16:12:03.726Z,25.20
2023-04-09T16:14:05.435Z,25.50
2023-04-09T16:16:08.157Z,25.50
2023-04-09T16:18:11.579Z,25.50
2023-04-09T16:20:13.278Z,25.10
2023-04-09T16:22:15.057Z,24.80
2023-04-09T16:24:16.682Z,25.50
2023-04-09T16:26:18.367Z,25.30
2023-04-09T16:28:21.680Z,25.30
2023-04-09T16:30:23.388Z,25.50
2023-04-09T16:32:25.390Z,25.50
2023-04-09T16:34:27.153Z,25.10
2023-04-09T16:36:29.470Z,25.30
2023-04-09T16:38:31.458Z,25.40
2023-04-09T16:40:33.244Z,25.90
2023-04-09T16:42:34.852Z,25.30
2023-04-09T16:44:36.592Z,24.70
2023-04-09T16:46:38.208Z,24.20
2023-04-09T16:48:41.816Z,24.20
2023-04-09T16:50:43.635Z,23.20
2023-04-09T16:52:46.006Z,22.90
2023-04-09T16:54:47.744Z,22.00
2023-04-09T16:56:49.470Z,20.40
2023-04-09T16:58:51.675Z,19.10
2023-04-09T17:00:53.517Z,18.30
2023-04-09T17:02:56.465Z,17.50
2023-04-09T17:04:58.474Z,17.10
2023-04-09T17:07:00.476Z,16.90
2023-04-09T17:09:05.216Z,16.60
2023-04-09T17:11:07.164Z,16.40
2023-04-09T17:13:08.884Z,16.30
2023-04-09T17:15:11.157Z,16.10
2023-04-09T17:17:12.864Z,16.10
2023-04-09T17:19:17.259Z,15.80
2023-04-09T17:21:18.910Z,15.60
2023-04-09T17:23:21.734Z,15.50
2023-04-09T17:25:23.774Z,15.40
2023-04-09T17:27:25.466Z,15.30
2023-04-09T17:29:27.109Z,15.20
2023-04-09T17:31:28.961Z,15.00
2023-04-09T17:33:30.590Z,14.90
2023-04-09T17:35:32.750Z,14.90
2023-04-09T17:37:34.617Z,14.80
2023-04-09T17:39:36.904Z,14.70
2023-04-09T17:41:38.501Z,14.70
2023-04-09T17:43:40.093Z,14.50
2023-04-09T17:45:42.527Z,14.40
2023-04-09T17:47:44.363Z,14.40
2023-04-09T17:49:47.750Z,14.30
2023-04-09T17:51:49.346Z,14.10
2023-04-09T17:53:53.540Z,14.10
2023-04-09T17:55:55.153Z,14.00
2023-04-09T17:57:56.778Z,13.80
2023-04-09T17:59:58.409Z,13.70
2023-04-09T18:02:00.922Z,13.60
2023-04-09T18:04:02.934Z,13.60
2023-04-09T18:06:04.913Z,13.50
2023-04-09T18:08:07.275Z,13.30
2023-04-09T18:10:09.295Z,13.30
2023-04-09T18:12:10.880Z,13.20
2023-04-09T18:14:12.602Z,13.00
2023-04-09T18:16:14.295Z,13.00
2023-04-09T18:18:15.989Z,12.90
2023-04-09T18:20:17.678Z,12.80
2023-04-09T18:22:19.306Z,12.70
2023-04-09T18:24:20.904Z,12.60
2023-04-09T18:26:22.884Z,12.50
2023-04-09T18:28:24.525Z,12.50
2023-04-09T18:30:26.349Z,12.40
2023-04-09T18:32:28.085Z,12.30
2023-04-09T18:34:29.780Z,12.30
2023-04-09T18:36:31.415Z,12.20
2023-04-09T18:38:33.047Z,12.00
2023-04-09T18:40:40.624Z,11.90
2023-04-09T18:42:42.247Z,11.70
2023-04-09T18:44:45.425Z,11.60
2023-04-09T18:46:47.169Z,11.50
2023-04-09T18:48:48.835Z,11.40
2023-04-09T18:50:50.513Z,11.30
2023-04-09T18:52:53.024Z,11.10
2023-04-09T18:54:54.684Z,10.90
2023-04-09T18:56:57.414Z,10.80
2023-04-09T18:58:59.124Z,10.70
2023-04-09T19:01:01.445Z,10.70
2023-04-09T19:03:03.391Z,10.60
2023-04-09T19:05:07.271Z,10.50
2023-04-09T19:07:09.168Z,10.50
2023-04-09T19:09:10.860Z,10.40
2023-04-09T19:11:13.057Z,10.30
2023-04-09T19:13:14.714Z,10.30
2023-04-09T19:15:16.879Z,10.20
2023-04-09T19:17:18.555Z,10.20
2023-04-09T19:19:20.275Z,10.20
2023-04-09T19:21:22.477Z,10.20
2023-04-09T19:23:24.738Z,10.20
2023-04-09T19:25:27.195Z,10.10
2023-04-09T19:27:28.962Z,10.10
2023-04-09T19:29:30.697Z,9.90
2023-04-09T19:31:32.417Z,9.90
2023-04-09T19:33:34.134Z,9.80
2023-04-09T19:35:40.411Z,9.80
2023-04-09T19:37:42.525Z,9.80
2023-04-09T19:39:44.127Z,9.80
2023-04-09T19:41:45.716Z,9.80
2023-04-09T19:43:47.383Z,9.90
2023-04-09T19:45:48.963Z,9.80
2023-04-09T19:47:50.650Z,9.70
2023-04-09T19:49:52.252Z,9.60
2023-04-09T19:51:53.921Z,9.50
2023-04-09T19:53:56.017Z,9.50
2023-04-09T19:55:57.729Z,9.40
2023-04-09T19:57:59.425Z,9.40
2023-04-09T20:00:01.252Z,9.30
2023-04-09T20:02:03.249Z,9.40
2023-04-09T20:04:05.266Z,9.40
2023-04-09T20:06:08.490Z,9.30
2023-04-09T20:08:13.557Z,9.20
2023-04-09T20:10:17.448Z,9.10
2023-04-09T20:12:21.020Z,9.10
2023-04-09T20:14:22.787Z,9.00
2023-04-09T20:16:24.419Z,8.80
2023-04-09T20:18:26.080Z,8.80
2023-04-09T20:20:27.710Z,8.70
2023-04-09T20:22:29.516Z,8.70
2023-04-09T20:24:32.231Z,8.70
2023-04-09T20:26:33.877Z,8.60
2023-04-09T20:28:35.826Z,8.50
2023-04-09T20:30:37.622Z,8.50
2023-04-09T20:32:39.397Z,8.60
2023-04-09T20:34:41.040Z,8.60
2023-04-09T20:36:43.796Z,8.50
2023-04-09T20:38:45.779Z,8.50
2023-04-09T20:40:47.428Z,8.40
2023-04-09T20:42:49.122Z,8.30
2023-04-09T20:44:50.884Z,8.30
2023-04-09T20:46:52.544Z,8.20
2023-04-09T20:48:54.730Z,8.10
2023-04-09T20:50:56.768Z,8.00
2023-04-09T20:52:58.842Z,8.00
2023-04-09T20:55:00.814Z,8.00
2023-04-09T20:57:03.433Z,7.90
2023-04-09T20:59:05.038Z,7.80
2023-04-09T21:01:09.339Z,7.80
2023-04-09T21:03:11.294Z,7.80
2023-04-09T21:05:22.800Z,7.80
2023-04-09T21:07:25.395Z,7.80
2023-04-09T21:09:27.077Z,7.70
2023-04-09T21:11:29.011Z,7.80
2023-04-09T21:13:35.531Z,7.70
2023-04-09T21:15:42.226Z,7.60
2023-04-09T21:17:43.955Z,7.60
2023-04-09T21:19:45.827Z,7.50
2023-04-09T21:22:05.919Z,7.50
2023-04-09T21:24:08.018Z,7.50
2023-04-09T21:26:11.337Z,7.50
2023-04-09T21:28:12.967Z,7.50
2023-04-09T21:30:14.588Z,7.60
2023-04-09T21:32:16.337Z,7.70
2023-04-09T21:34:17.970Z,7.70
2023-04-09T21:36:19.698Z,7.70
2023-04-09T21:38:21.490Z,7.70
2023-04-09T21:40:23.498Z,7.70
2023-04-09T21:42:25.564Z,7.70
2023-04-09T21:44:27.224Z,7.60
2023-04-09T21:46:29.047Z,7.60
2023-04-09T21:48:31.115Z,7.50
2023-04-09T21:50:33.112Z,7.30
2023-04-09T21:52:35.138Z,7.30
2023-04-09T21:54:36.793Z,7.20
2023-04-09T21:56:38.899Z,7.20
2023-04-09T21:58:40.498Z,7.20
2023-04-09T22:00:42.869Z,7.10
2023-04-09T22:02:44.759Z,7.00
2023-04-09T22:04:46.660Z,7.00
2023-04-09T22:06:48.346Z,7.10
2023-04-09T22:08:56.402Z,7.10
2023-04-09T22:10:58.625Z,7.10
2023-04-09T22:13:00.235Z,7.10
2023-04-09T22:15:02.913Z,7.00
2023-04-09T22:17:04.735Z,7.00
2023-04-09T22:19:06.531Z,6.90
2023-04-09T22:21:08.139Z,6.80
2023-04-09T22:23:09.857Z,6.70
2023-04-09T22:25:12.306Z,6.70
2023-04-09T22:27:14.193Z,6.70
2023-04-09T22:29:15.910Z,6.60
2023-04-09T22:31:17.712Z,6.60
2023-04-09T22:33:19.332Z,6.50
2023-04-09T22:35:21.060Z,6.50
2023-04-09T22:37:22.669Z,6.50
2023-04-09T22:39:24.334Z,6.50
2023-04-09T22:41:26.326Z,6.60
2023-04-09T22:43:28.004Z,6.70
2023-04-09T22:45:30.583Z,6.60
2023-04-09T22:47:32.253Z,6.60
2023-04-09T22:49:33.833Z,6.50
2023-04-09T22:51:35.462Z,6.40
2023-04-09T22:53:37.066Z,6.40
2023-04-09T22:55:38.677Z,6.40
2023-04-09T22:57:42.887Z,6.50
2023-04-09T22:59:44.574Z,6.40
2023-04-09T23:01:46.367Z,6.30
2023-04-09T23:03:49.092Z,6.20
2023-04-09T23:05:51.038Z,6.20
2023-04-09T23:07:52.641Z,6.10
2023-04-09T23:09:57.323Z,6.00
2023-04-09T23:11:58.973Z,6.00
2023-04-09T23:14:00.614Z,5.90
2023-04-09T23:16:06.296Z,5.90
2023-04-09T23:18:08.154Z,5.80
2023-04-09T23:20:11.387Z,5.70
2023-04-09T23:22:13.024Z,5.60
2023-04-09T23:24:14.644Z,5.60
2023-04-09T23:26:16.277Z,5.60
2023-04-09T23:28:17.914Z,5.60
2023-04-09T23:30:21.603Z,5.50
2023-04-09T23:32:23.331Z,5.50
2023-04-09T23:34:24.915Z,5.50
2023-04-09T23:36:26.868Z,5.50
2023-04-09T23:38:28.505Z,5.50
2023-04-09T23:40:30.203Z,5.50
2023-04-09T23:42:33.792Z,5.60
2023-04-09T23:44:35.422Z,5.60
2023-04-09T23:46:37.187Z,5.60
2023-04-09T23:48:39.865Z,5.60
2023-04-09T23:50:41.616Z,5.70
2023-04-09T23:52:47.985Z,5.70
2023-04-09T23:54:52.194Z,5.70
2023-04-09T23:56:53.812Z,5.70
2023-04-09T23:58:55.428Z,5.70
